sensor_id;sensor_type;location;lat;lon;timestamp;P1;durP1;ratioP1;P2;durP2;ratioP2
80241;SDS011;69556;45.004;7.532;2023-10-09T07:01:15;22.92;;;9.40;;
80241;SDS011;69556;45.004;7.532;2023-10-09T07:03:53;22.23;;;9.38;;
80241;SDS011;69556;45.004;7.532;2023-10-09T07:06:24;21.55;;;9.63;;
80241;SDS011;69556;45.004;7.532;2023-10-09T07:09:10;24.10;;;9.30;;
80241;SDS011;69556;45.004;7.532;2023-10-09T07:11:40;23.92;;;9.27;;
80241;SDS011;69556;45.004;7.532;2023-10-09T07:14:06;27.30;;;9.68;;
80241;SDS011;69556;45.004;7.532;2023-10-09T07:16:35;24.98;;;9.65;;
80241;SDS011;69556;45.004;7.532;2023-10-09T07:19:22;25.73;;;8.82;;
80241;SDS011;69556;45.004;7.532;2023-10-09T07:22:03;33.00;;;9.98;;
80241;SDS011;69556;45.004;7.532;2023-10-09T07:24:29;20.08;;;8.40;;
80241;SDS011;69556;45.004;7.532;2023-10-09T07:27:16;23.88;;;9.55;;
80241;SDS011;69556;45.004;7.532;2023-10-09T07:29:42;20.42;;;8.95;;
80241;SDS011;69556;45.004;7.532;2023-10-09T07:32:14;23.83;;;10.48;;
80241;SDS011;69556;45.004;7.532;2023-10-09T07:34:46;26.25;;;9.13;;
80241;SDS011;69556;45.004;7.532;2023-10-09T07:37:18;30.10;;;9.25;;
80241;SDS011;69556;45.004;7.532;2023-10-09T07:39:45;28.08;;;9.05;;
80241;SDS011;69556;45.004;7.532;2023-10-09T07:42:21;23.67;;;9.23;;
80241;SDS011;69556;45.004;7.532;2023-10-09T07:45:05;25.35;;;9.85;;
80241;SDS011;69556;45.004;7.532;2023-10-09T07:47:43;29.42;;;9.60;;
80241;SDS011;69556;45.004;7.532;2023-10-09T07:50:26;23.75;;;9.13;;
80241;SDS011;69556;45.004;7.532;2023-10-09T07:53:14;21.55;;;9.15;;
80241;SDS011;69556;45.004;7.532;2023-10-09T07:55:40;25.65;;;9.07;;
80241;SDS011;69556;45.004;7.532;2023-10-09T07:58:11;26.40;;;9.02;;
80241;SDS011;69556;45.004;7.532;2023-10-09T08:00:39;15.13;;;7.78;;
80241;SDS011;69556;45.004;7.532;2023-10-09T08:03:23;20.70;;;8.15;;
80241;SDS011;69556;45.004;7.532;2023-10-09T08:05:49;34.97;;;9.82;;
80241;SDS011;69556;45.004;7.532;2023-10-09T08:08:17;19.90;;;8.40;;
80241;SDS011;69556;45.004;7.532;2023-10-09T08:11:03;18.95;;;8.07;;
80241;SDS011;69556;45.004;7.532;2023-10-09T08:13:47;24.48;;;8.48;;
80241;SDS011;69556;45.004;7.532;2023-10-09T08:16:21;29.40;;;8.07;;
80241;SDS011;69556;45.004;7.532;2023-10-09T08:18:49;25.65;;;9.80;;
80241;SDS011;69556;45.004;7.532;2023-10-09T08:21:16;28.10;;;9.75;;
80241;SDS011;69556;45.004;7.532;2023-10-09T08:23:43;20.20;;;9.02;;
80241;SDS011;69556;45.004;7.532;2023-10-09T08:26:19;25.63;;;9.75;;
80241;SDS011;69556;45.004;7.532;2023-10-09T08:28:54;20.85;;;8.95;;
80241;SDS011;69556;45.004;7.532;2023-10-09T08:31:40;20.67;;;7.97;;
80241;SDS011;69556;45.004;7.532;2023-10-09T08:34:14;30.90;;;10.10;;
80241;SDS011;69556;45.004;7.532;2023-10-09T08:39:18;21.80;;;8.47;;
80241;SDS011;69556;45.004;7.532;2023-10-09T08:41:58;21.27;;;8.43;;
80241;SDS011;69556;45.004;7.532;2023-10-09T08:44:24;27.13;;;9.23;;
80241;SDS011;69556;45.004;7.532;2023-10-09T08:46:54;28.85;;;8.80;;
80241;SDS011;69556;45.004;7.532;2023-10-09T08:49:22;22.95;;;8.38;;
80241;SDS011;69556;45.004;7.532;2023-10-09T08:51:48;21.73;;;7.90;;
80241;SDS011;69556;45.004;7.532;2023-10-09T08:54:13;21.00;;;8.57;;
80241;SDS011;69556;45.004;7.532;2023-10-09T08:56:39;22.05;;;8.80;;
80241;SDS011;69556;45.004;7.532;2023-10-09T08:59:14;26.38;;;8.13;;
80241;SDS011;69556;45.004;7.532;2023-10-09T09:01:48;21.38;;;7.10;;
80241;SDS011;69556;45.004;7.532;2023-10-09T09:06:58;19.92;;;8.57;;
80241;SDS011;69556;45.004;7.532;2023-10-09T09:09:24;27.27;;;8.27;;
80241;SDS011;69556;45.004;7.532;2023-10-09T09:11:53;20.90;;;7.95;;
80241;SDS011;69556;45.004;7.532;2023-10-09T09:14:20;28.98;;;9.23;;
80241;SDS011;69556;45.004;7.532;2023-10-09T09:17:01;21.42;;;8.52;;
80241;SDS011;69556;45.004;7.532;2023-10-09T09:19:32;20.25;;;7.47;;
80241;SDS011;69556;45.004;7.532;2023-10-09T09:22:01;25.23;;;8.82;;
80241;SDS011;69556;45.004;7.532;2023-10-09T09:24:40;22.92;;;8.15;;
80241;SDS011;69556;45.004;7.532;2023-10-09T09:27:11;23.98;;;8.75;;
80241;SDS011;69556;45.004;7.532;2023-10-09T09:29:46;27.63;;;11.55;;
80241;SDS011;69556;45.004;7.532;2023-10-09T09:32:26;39.83;;;15.23;;
80241;SDS011;69556;45.004;7.532;2023-10-09T09:35:00;24.35;;;8.88;;
80241;SDS011;69556;45.004;7.532;2023-10-09T09:37:29;35.17;;;10.73;;
80241;SDS011;69556;45.004;7.532;2023-10-09T09:40:17;24.00;;;7.95;;
80241;SDS011;69556;45.004;7.532;2023-10-09T09:42:58;17.42;;;7.45;;
80241;SDS011;69556;45.004;7.532;2023-10-09T09:45:30;29.77;;;7.82;;
80241;SDS011;69556;45.004;7.532;2023-10-09T09:48:13;23.67;;;7.65;;
80241;SDS011;69556;45.004;7.532;2023-10-09T09:50:41;24.25;;;8.18;;
80241;SDS011;69556;45.004;7.532;2023-10-09T09:53:13;26.10;;;8.13;;
80241;SDS011;69556;45.004;7.532;2023-10-09T09:55:49;22.67;;;7.97;;
80241;SDS011;69556;45.004;7.532;2023-10-09T09:58:23;26.65;;;6.45;;
80241;SDS011;69556;45.004;7.532;2023-10-09T10:00:52;19.02;;;8.43;;
80241;SDS011;69556;45.004;7.532;2023-10-09T10:03:20;33.90;;;7.97;;
80241;SDS011;69556;45.004;7.532;2023-10-09T10:06:02;24.40;;;7.60;;
80241;SDS011;69556;45.004;7.532;2023-10-09T10:08:34;24.90;;;7.45;;
80241;SDS011;69556;45.004;7.532;2023-10-09T10:11:01;20.00;;;7.63;;
80241;SDS011;69556;45.004;7.532;2023-10-09T10:18:57;23.15;;;6.95;;
80241;SDS011;69556;45.004;7.532;2023-10-09T10:21:35;18.95;;;6.15;;
80241;SDS011;69556;45.004;7.532;2023-10-09T10:24:15;29.88;;;6.82;;
80241;SDS011;69556;45.004;7.532;2023-10-09T10:29:35;24.48;;;6.25;;
80241;SDS011;69556;45.004;7.532;2023-10-09T10:32:03;29.58;;;7.13;;
80241;SDS011;69556;45.004;7.532;2023-10-09T10:37:20;22.17;;;6.45;;
80241;SDS011;69556;45.004;7.532;2023-10-09T10:40:22;18.52;;;5.93;;
80241;SDS011;69556;45.004;7.532;2023-10-09T10:43:03;24.92;;;6.97;;
80241;SDS011;69556;45.004;7.532;2023-10-09T10:45:39;19.90;;;5.93;;
80241;SDS011;69556;45.004;7.532;2023-10-09T10:48:10;34.75;;;6.95;;
80241;SDS011;69556;45.004;7.532;2023-10-09T10:51:02;14.55;;;6.10;;
80241;SDS011;69556;45.004;7.532;2023-10-09T10:53:28;14.32;;;5.57;;
80241;SDS011;69556;45.004;7.532;2023-10-09T10:56:03;15.82;;;4.53;;
80241;SDS011;69556;45.004;7.532;2023-10-09T10:58:37;14.25;;;5.25;;
80241;SDS011;69556;45.004;7.532;2023-10-09T11:01:03;28.55;;;5.38;;
80241;SDS011;69556;45.004;7.532;2023-10-09T11:03:38;11.35;;;4.75;;
80241;SDS011;69556;45.004;7.532;2023-10-09T11:06:27;16.33;;;4.80;;
80241;SDS011;69556;45.004;7.532;2023-10-09T11:09:06;17.73;;;5.07;;
80241;SDS011;69556;45.004;7.532;2023-10-09T11:11:51;20.77;;;5.45;;
80241;SDS011;69556;45.004;7.532;2023-10-09T11:14:20;17.38;;;4.68;;
80241;SDS011;69556;45.004;7.532;2023-10-09T11:16:51;10.95;;;4.75;;
80241;SDS011;69556;45.004;7.532;2023-10-09T11:19:22;17.55;;;4.75;;
80241;SDS011;69556;45.004;7.532;2023-10-09T11:21:56;19.45;;;7.82;;
80241;SDS011;69556;45.004;7.532;2023-10-09T11:24:33;14.10;;;5.07;;
80241;SDS011;69556;45.004;7.532;2023-10-09T11:27:01;17.05;;;4.97;;
80241;SDS011;69556;45.004;7.532;2023-10-09T11:29:31;22.27;;;7.57;;
80241;SDS011;69556;45.004;7.532;2023-10-09T11:32:20;16.08;;;5.05;;
80241;SDS011;69556;45.004;7.532;2023-10-09T11:34:51;19.10;;;4.95;;
80241;SDS011;69556;45.004;7.532;2023-10-09T11:37:36;29.38;;;13.80;;
80241;SDS011;69556;45.004;7.532;2023-10-09T11:40:07;21.75;;;6.63;;
80241;SDS011;69556;45.004;7.532;2023-10-09T11:43:13;21.40;;;4.60;;
80241;SDS011;69556;45.004;7.532;2023-10-09T11:45:39;15.20;;;5.13;;
80241;SDS011;69556;45.004;7.532;2023-10-09T11:48:17;19.05;;;4.38;;
80241;SDS011;69556;45.004;7.532;2023-10-09T11:50:55;24.50;;;4.97;;
80241;SDS011;69556;45.004;7.532;2023-10-09T11:53:20;19.73;;;5.43;;
80241;SDS011;69556;45.004;7.532;2023-10-09T11:55:49;16.25;;;5.32;;
80241;SDS011;69556;45.004;7.532;2023-10-09T11:58:17;14.25;;;4.57;;
80241;SDS011;69556;45.004;7.532;2023-10-09T12:03:16;19.48;;;4.82;;
80241;SDS011;69556;45.004;7.532;2023-10-09T12:05:41;24.25;;;5.00;;
80241;SDS011;69556;45.004;7.532;2023-10-09T12:08:09;25.65;;;5.32;;
80241;SDS011;69556;45.004;7.532;2023-10-09T12:10:36;20.25;;;5.22;;
80241;SDS011;69556;45.004;7.532;2023-10-09T12:13:03;22.75;;;6.40;;
80241;SDS011;69556;45.004;7.532;2023-10-09T12:18:03;14.63;;;6.05;;
80241;SDS011;69556;45.004;7.532;2023-10-09T12:20:31;18.58;;;6.47;;
80241;SDS011;69556;45.004;7.532;2023-10-09T12:23:01;23.70;;;6.10;;
80241;SDS011;69556;45.004;7.532;2023-10-09T12:25:31;16.65;;;6.25;;
80241;SDS011;69556;45.004;7.532;2023-10-09T12:27:58;18.13;;;6.97;;
80241;SDS011;69556;45.004;7.532;2023-10-09T12:30:31;23.05;;;7.43;;
80241;SDS011;69556;45.004;7.532;2023-10-09T12:33:04;21.08;;;6.70;;
80241;SDS011;69556;45.004;7.532;2023-10-09T12:35:35;23.13;;;7.70;;
80241;SDS011;69556;45.004;7.532;2023-10-09T12:38:04;20.48;;;6.60;;
80241;SDS011;69556;45.004;7.532;2023-10-09T12:40:33;23.83;;;7.55;;
80241;SDS011;69556;45.004;7.532;2023-10-09T12:42:59;26.88;;;7.93;;
80241;SDS011;69556;45.004;7.532;2023-10-09T12:45:25;23.17;;;9.10;;
80241;SDS011;69556;45.004;7.532;2023-10-09T12:47:54;22.45;;;9.15;;
80241;SDS011;69556;45.004;7.532;2023-10-09T12:50:33;22.15;;;8.52;;
80241;SDS011;69556;45.004;7.532;2023-10-09T12:52:59;27.05;;;9.82;;
80241;SDS011;69556;45.004;7.532;2023-10-09T12:55:34;26.10;;;9.18;;
80241;SDS011;69556;45.004;7.532;2023-10-09T12:58:06;25.88;;;8.35;;
80241;SDS011;69556;45.004;7.532;2023-10-09T13:00:33;25.88;;;9.60;;
80241;SDS011;69556;45.004;7.532;2023-10-09T13:03:09;32.63;;;8.98;;
80241;SDS011;69556;45.004;7.532;2023-10-09T13:08:23;24.00;;;10.27;;
80241;SDS011;69556;45.004;7.532;2023-10-09T13:10:52;21.90;;;7.53;;
80241;SDS011;69556;45.004;7.532;2023-10-09T13:13:24;25.65;;;9.60;;
80241;SDS011;69556;45.004;7.532;2023-10-09T13:16:04;31.05;;;9.60;;
80241;SDS011;69556;45.004;7.532;2023-10-09T13:18:31;25.30;;;9.38;;
80241;SDS011;69556;45.004;7.532;2023-10-09T13:20:57;25.35;;;9.57;;
80241;SDS011;69556;45.004;7.532;2023-10-09T13:23:22;38.15;;;9.70;;
80241;SDS011;69556;45.004;7.532;2023-10-09T13:25:52;31.20;;;10.15;;
80241;SDS011;69556;45.004;7.532;2023-10-09T13:28:18;25.35;;;10.18;;
80241;SDS011;69556;45.004;7.532;2023-10-09T13:30:45;32.25;;;12.40;;
80241;SDS011;69556;45.004;7.532;2023-10-09T13:33:14;28.05;;;9.73;;
80241;SDS011;69556;45.004;7.532;2023-10-09T13:35:42;29.27;;;10.13;;
80241;SDS011;69556;45.004;7.532;2023-10-09T13:38:15;23.80;;;9.35;;
80241;SDS011;69556;45.004;7.532;2023-10-09T13:40:41;23.15;;;8.70;;
80241;SDS011;69556;45.004;7.532;2023-10-09T13:43:07;28.17;;;8.02;;
80241;SDS011;69556;45.004;7.532;2023-10-09T13:45:40;21.00;;;7.93;;
80241;SDS011;69556;45.004;7.532;2023-10-09T13:48:05;33.83;;;10.07;;
80241;SDS011;69556;45.004;7.532;2023-10-09T13:50:30;37.10;;;9.13;;
80241;SDS011;69556;45.004;7.532;2023-10-09T13:52:59;24.85;;;9.45;;
80241;SDS011;69556;45.004;7.532;2023-10-09T13:55:24;25.15;;;8.98;;
